Terminal Aerodrome Forecast
Issued by NWS

Home | Current Version | Previous Version | Text Only | Print | Product List | Glossary On
Versions: 1 2 3 4 5 6 7 8 9 10 11 12 13 14 15 16
807
FTUS43 KJKL 221739
TAFSME
TAF
KSME 221739Z 2218/2318 19008KT P6SM -SHRA VCTS SCT025CB BKN070
     FM222300 VRB03KT P6SM VCSH BKN035
     FM230700 00000KT 3SM BR SCT003 BKN090
     FM231000 00000KT 3/4SM BR VCSH BKN008
     FM231400 VRB05KT P6SM BKN035=

USA.gov is the U.S. government's official web portal to all federal, state and local government web resources and services.